sensor_id;sensor_type;location;lat;lon;timestamp;P1;durP1;ratioP1;P2;durP2;ratioP2
56399;SDS011;42298;53.638;9.876;2023-03-11T00:00:17;19.07;;;12.43;;
56399;SDS011;42298;53.638;9.876;2023-03-11T00:02:45;22.33;;;12.93;;
56399;SDS011;42298;53.638;9.876;2023-03-11T00:05:15;18.43;;;13.13;;
56399;SDS011;42298;53.638;9.876;2023-03-11T00:07:42;18.43;;;12.20;;
56399;SDS011;42298;53.638;9.876;2023-03-11T00:10:08;18.17;;;13.00;;
56399;SDS011;42298;53.638;9.876;2023-03-11T00:12:38;17.33;;;11.50;;
56399;SDS011;42298;53.638;9.876;2023-03-11T00:15:04;21.77;;;14.03;;
56399;SDS011;42298;53.638;9.876;2023-03-11T00:17:29;20.87;;;13.63;;
56399;SDS011;42298;53.638;9.876;2023-03-11T00:19:55;19.97;;;14.20;;
56399;SDS011;42298;53.638;9.876;2023-03-11T00:22:20;20.77;;;13.90;;
56399;SDS011;42298;53.638;9.876;2023-03-11T00:24:46;19.30;;;13.30;;
56399;SDS011;42298;53.638;9.876;2023-03-11T00:27:11;21.03;;;13.80;;
56399;SDS011;42298;53.638;9.876;2023-03-11T00:29:36;21.97;;;14.00;;
56399;SDS011;42298;53.638;9.876;2023-03-11T00:32:02;19.90;;;14.07;;
56399;SDS011;42298;53.638;9.876;2023-03-11T00:34:27;18.77;;;13.90;;
56399;SDS011;42298;53.638;9.876;2023-03-11T00:36:52;19.87;;;12.97;;
56399;SDS011;42298;53.638;9.876;2023-03-11T00:39:18;19.63;;;12.63;;
56399;SDS011;42298;53.638;9.876;2023-03-11T00:41:43;20.87;;;13.53;;
56399;SDS011;42298;53.638;9.876;2023-03-11T00:44:08;20.53;;;13.53;;
56399;SDS011;42298;53.638;9.876;2023-03-11T00:46:34;21.03;;;14.47;;
56399;SDS011;42298;53.638;9.876;2023-03-11T00:48:59;18.83;;;13.17;;
56399;SDS011;42298;53.638;9.876;2023-03-11T00:51:24;20.27;;;14.20;;
56399;SDS011;42298;53.638;9.876;2023-03-11T00:53:50;19.27;;;13.43;;
56399;SDS011;42298;53.638;9.876;2023-03-11T00:56:15;21.23;;;14.67;;
56399;SDS011;42298;53.638;9.876;2023-03-11T00:58:42;19.73;;;14.17;;
56399;SDS011;42298;53.638;9.876;2023-03-11T01:01:12;20.70;;;14.47;;
56399;SDS011;42298;53.638;9.876;2023-03-11T01:03:40;19.93;;;14.07;;
56399;SDS011;42298;53.638;9.876;2023-03-11T01:06:06;20.50;;;13.20;;
56399;SDS011;42298;53.638;9.876;2023-03-11T01:08:31;19.10;;;12.87;;
56399;SDS011;42298;53.638;9.876;2023-03-11T01:10:57;20.73;;;13.97;;
56399;SDS011;42298;53.638;9.876;2023-03-11T01:13:24;20.13;;;14.20;;
56399;SDS011;42298;53.638;9.876;2023-03-11T01:15:50;20.97;;;14.60;;
56399;SDS011;42298;53.638;9.876;2023-03-11T01:18:16;18.47;;;12.60;;
56399;SDS011;42298;53.638;9.876;2023-03-11T01:20:42;18.60;;;13.23;;
56399;SDS011;42298;53.638;9.876;2023-03-11T01:23:08;22.93;;;15.27;;
56399;SDS011;42298;53.638;9.876;2023-03-11T01:25:34;21.37;;;14.37;;
56399;SDS011;42298;53.638;9.876;2023-03-11T01:28:00;21.23;;;14.73;;
56399;SDS011;42298;53.638;9.876;2023-03-11T01:30:26;20.13;;;13.43;;
56399;SDS011;42298;53.638;9.876;2023-03-11T01:32:53;19.13;;;13.50;;
56399;SDS011;42298;53.638;9.876;2023-03-11T01:35:20;19.60;;;13.07;;
56399;SDS011;42298;53.638;9.876;2023-03-11T01:37:47;20.27;;;14.60;;
56399;SDS011;42298;53.638;9.876;2023-03-11T01:40:20;18.77;;;12.20;;
56399;SDS011;42298;53.638;9.876;2023-03-11T01:42:50;19.57;;;13.97;;
56399;SDS011;42298;53.638;9.876;2023-03-11T01:45:25;19.23;;;13.13;;
56399;SDS011;42298;53.638;9.876;2023-03-11T01:47:53;18.50;;;12.97;;
56399;SDS011;42298;53.638;9.876;2023-03-11T01:50:18;20.13;;;11.93;;
56399;SDS011;42298;53.638;9.876;2023-03-11T01:52:44;20.77;;;14.07;;
56399;SDS011;42298;53.638;9.876;2023-03-11T01:55:10;18.57;;;13.27;;
56399;SDS011;42298;53.638;9.876;2023-03-11T01:57:39;20.73;;;13.90;;
56399;SDS011;42298;53.638;9.876;2023-03-11T02:00:08;19.67;;;13.17;;
56399;SDS011;42298;53.638;9.876;2023-03-11T02:02:40;17.33;;;12.10;;
56399;SDS011;42298;53.638;9.876;2023-03-11T02:05:09;20.03;;;13.57;;
56399;SDS011;42298;53.638;9.876;2023-03-11T02:07:36;19.60;;;12.33;;
56399;SDS011;42298;53.638;9.876;2023-03-11T02:10:03;20.13;;;13.53;;
56399;SDS011;42298;53.638;9.876;2023-03-11T02:12:32;20.73;;;14.13;;
56399;SDS011;42298;53.638;9.876;2023-03-11T02:14:59;20.07;;;13.77;;
56399;SDS011;42298;53.638;9.876;2023-03-11T02:17:26;19.47;;;12.30;;
56399;SDS011;42298;53.638;9.876;2023-03-11T02:22:31;19.83;;;13.03;;
56399;SDS011;42298;53.638;9.876;2023-03-11T02:25:02;18.47;;;12.80;;
56399;SDS011;42298;53.638;9.876;2023-03-11T02:27:48;19.13;;;13.43;;
56399;SDS011;42298;53.638;9.876;2023-03-11T02:30:16;20.00;;;12.70;;
56399;SDS011;42298;53.638;9.876;2023-03-11T02:32:43;20.80;;;13.77;;
56399;SDS011;42298;53.638;9.876;2023-03-11T02:35:12;20.73;;;13.50;;
56399;SDS011;42298;53.638;9.876;2023-03-11T02:37:42;19.20;;;12.97;;
56399;SDS011;42298;53.638;9.876;2023-03-11T02:40:32;20.80;;;14.23;;
56399;SDS011;42298;53.638;9.876;2023-03-11T02:43:08;21.10;;;13.50;;
56399;SDS011;42298;53.638;9.876;2023-03-11T02:45:35;21.10;;;13.57;;
56399;SDS011;42298;53.638;9.876;2023-03-11T02:48:04;18.67;;;12.60;;
56399;SDS011;42298;53.638;9.876;2023-03-11T02:50:32;21.07;;;14.43;;
56399;SDS011;42298;53.638;9.876;2023-03-11T02:53:00;19.67;;;13.57;;
56399;SDS011;42298;53.638;9.876;2023-03-11T02:55:25;20.37;;;13.40;;
56399;SDS011;42298;53.638;9.876;2023-03-11T02:57:51;19.90;;;13.03;;
56399;SDS011;42298;53.638;9.876;2023-03-11T03:00:16;18.60;;;12.90;;
56399;SDS011;42298;53.638;9.876;2023-03-11T03:02:42;20.43;;;13.93;;
56399;SDS011;42298;53.638;9.876;2023-03-11T03:05:09;20.00;;;13.03;;
56399;SDS011;42298;53.638;9.876;2023-03-11T03:07:36;21.60;;;14.37;;
56399;SDS011;42298;53.638;9.876;2023-03-11T03:10:02;18.63;;;12.17;;
56399;SDS011;42298;53.638;9.876;2023-03-11T03:12:29;17.23;;;11.83;;
56399;SDS011;42298;53.638;9.876;2023-03-11T03:14:54;19.33;;;12.50;;
56399;SDS011;42298;53.638;9.876;2023-03-11T03:17:19;19.37;;;12.70;;
56399;SDS011;42298;53.638;9.876;2023-03-11T03:19:45;20.13;;;13.47;;
56399;SDS011;42298;53.638;9.876;2023-03-11T03:22:10;16.83;;;12.17;;
56399;SDS011;42298;53.638;9.876;2023-03-11T03:24:35;18.97;;;12.70;;
56399;SDS011;42298;53.638;9.876;2023-03-11T03:27:01;18.03;;;12.77;;
56399;SDS011;42298;53.638;9.876;2023-03-11T03:29:26;17.80;;;11.23;;
56399;SDS011;42298;53.638;9.876;2023-03-11T03:31:51;17.13;;;11.77;;
56399;SDS011;42298;53.638;9.876;2023-03-11T03:34:17;17.60;;;12.43;;
56399;SDS011;42298;53.638;9.876;2023-03-11T03:36:42;15.97;;;11.00;;
56399;SDS011;42298;53.638;9.876;2023-03-11T03:39:07;18.10;;;12.20;;
56399;SDS011;42298;53.638;9.876;2023-03-11T03:41:33;18.37;;;12.67;;
56399;SDS011;42298;53.638;9.876;2023-03-11T03:43:58;17.33;;;11.70;;
56399;SDS011;42298;53.638;9.876;2023-03-11T03:46:23;16.73;;;11.43;;
56399;SDS011;42298;53.638;9.876;2023-03-11T03:48:49;17.47;;;11.37;;
56399;SDS011;42298;53.638;9.876;2023-03-11T03:51:14;16.70;;;11.20;;
56399;SDS011;42298;53.638;9.876;2023-03-11T03:53:40;16.87;;;10.80;;
56399;SDS011;42298;53.638;9.876;2023-03-11T03:56:10;17.27;;;11.50;;
56399;SDS011;42298;53.638;9.876;2023-03-11T03:58:37;17.77;;;12.30;;
56399;SDS011;42298;53.638;9.876;2023-03-11T04:01:03;16.03;;;10.67;;
56399;SDS011;42298;53.638;9.876;2023-03-11T04:03:29;16.93;;;11.03;;
56399;SDS011;42298;53.638;9.876;2023-03-11T04:06:04;16.33;;;11.00;;
56399;SDS011;42298;53.638;9.876;2023-03-11T04:08:30;16.23;;;10.87;;
56399;SDS011;42298;53.638;9.876;2023-03-11T04:10:56;15.20;;;9.80;;
56399;SDS011;42298;53.638;9.876;2023-03-11T04:13:23;17.73;;;10.00;;
56399;SDS011;42298;53.638;9.876;2023-03-11T04:15:48;16.53;;;9.57;;
56399;SDS011;42298;53.638;9.876;2023-03-11T04:18:14;15.43;;;9.77;;
56399;SDS011;42298;53.638;9.876;2023-03-11T04:20:39;15.37;;;9.67;;
56399;SDS011;42298;53.638;9.876;2023-03-11T04:23:04;14.00;;;9.33;;
56399;SDS011;42298;53.638;9.876;2023-03-11T04:25:30;17.63;;;10.77;;
56399;SDS011;42298;53.638;9.876;2023-03-11T04:27:55;15.87;;;9.43;;
56399;SDS011;42298;53.638;9.876;2023-03-11T04:30:20;15.33;;;9.83;;
56399;SDS011;42298;53.638;9.876;2023-03-11T04:32:46;14.90;;;9.93;;
56399;SDS011;42298;53.638;9.876;2023-03-11T04:35:11;15.10;;;9.10;;
56399;SDS011;42298;53.638;9.876;2023-03-11T04:37:36;15.47;;;9.70;;
56399;SDS011;42298;53.638;9.876;2023-03-11T04:40:02;14.27;;;9.70;;
56399;SDS011;42298;53.638;9.876;2023-03-11T04:42:29;15.43;;;9.50;;
56399;SDS011;42298;53.638;9.876;2023-03-11T04:44:54;15.93;;;9.43;;
56399;SDS011;42298;53.638;9.876;2023-03-11T04:47:20;15.23;;;9.20;;
56399;SDS011;42298;53.638;9.876;2023-03-11T04:49:45;14.27;;;8.93;;
56399;SDS011;42298;53.638;9.876;2023-03-11T04:52:11;15.13;;;9.87;;
56399;SDS011;42298;53.638;9.876;2023-03-11T04:54:36;15.60;;;9.53;;
56399;SDS011;42298;53.638;9.876;2023-03-11T04:57:01;15.37;;;10.00;;
56399;SDS011;42298;53.638;9.876;2023-03-11T04:59:27;16.77;;;9.77;;
56399;SDS011;42298;53.638;9.876;2023-03-11T05:01:52;18.73;;;9.90;;
56399;SDS011;42298;53.638;9.876;2023-03-11T05:04:17;15.77;;;9.63;;
56399;SDS011;42298;53.638;9.876;2023-03-11T05:06:42;15.33;;;9.47;;
56399;SDS011;42298;53.638;9.876;2023-03-11T05:09:08;15.93;;;9.60;;
56399;SDS011;42298;53.638;9.876;2023-03-11T05:11:33;16.53;;;9.83;;
56399;SDS011;42298;53.638;9.876;2023-03-11T05:13:58;15.33;;;9.70;;
56399;SDS011;42298;53.638;9.876;2023-03-11T05:16:24;16.83;;;10.10;;
56399;SDS011;42298;53.638;9.876;2023-03-11T05:18:49;15.27;;;9.63;;
56399;SDS011;42298;53.638;9.876;2023-03-11T05:21:14;14.37;;;9.27;;
56399;SDS011;42298;53.638;9.876;2023-03-11T05:23:39;15.23;;;8.87;;
56399;SDS011;42298;53.638;9.876;2023-03-11T05:26:05;15.00;;;9.43;;
56399;SDS011;42298;53.638;9.876;2023-03-11T05:28:30;15.10;;;8.90;;
56399;SDS011;42298;53.638;9.876;2023-03-11T05:30:56;14.17;;;8.60;;
56399;SDS011;42298;53.638;9.876;2023-03-11T05:33:21;15.03;;;9.30;;
56399;SDS011;42298;53.638;9.876;2023-03-11T05:35:46;15.90;;;9.40;;
56399;SDS011;42298;53.638;9.876;2023-03-11T05:38:12;15.40;;;9.60;;
56399;SDS011;42298;53.638;9.876;2023-03-11T05:40:37;17.17;;;9.37;;
56399;SDS011;42298;53.638;9.876;2023-03-11T05:43:02;14.20;;;8.70;;
56399;SDS011;42298;53.638;9.876;2023-03-11T05:45:28;15.50;;;9.33;;
56399;SDS011;42298;53.638;9.876;2023-03-11T05:47:53;14.47;;;8.80;;
56399;SDS011;42298;53.638;9.876;2023-03-11T05:50:18;17.73;;;9.53;;
56399;SDS011;42298;53.638;9.876;2023-03-11T05:52:44;17.83;;;10.77;;
56399;SDS011;42298;53.638;9.876;2023-03-11T05:55:09;18.17;;;9.37;;
56399;SDS011;42298;53.638;9.876;2023-03-11T05:57:36;17.30;;;10.23;;
56399;SDS011;42298;53.638;9.876;2023-03-11T06:00:03;17.67;;;10.63;;
56399;SDS011;42298;53.638;9.876;2023-03-11T06:02:34;17.53;;;10.30;;
56399;SDS011;42298;53.638;9.876;2023-03-11T06:04:59;17.87;;;10.40;;
56399;SDS011;42298;53.638;9.876;2023-03-11T06:07:24;16.40;;;10.30;;
56399;SDS011;42298;53.638;9.876;2023-03-11T06:09:50;17.40;;;10.00;;
56399;SDS011;42298;53.638;9.876;2023-03-11T06:12:15;16.47;;;10.20;;
56399;SDS011;42298;53.638;9.876;2023-03-11T06:14:40;17.33;;;9.93;;
56399;SDS011;42298;53.638;9.876;2023-03-11T06:17:06;18.27;;;10.90;;
56399;SDS011;42298;53.638;9.876;2023-03-11T06:19:31;18.43;;;11.63;;
56399;SDS011;42298;53.638;9.876;2023-03-11T06:21:56;19.30;;;11.60;;
56399;SDS011;42298;53.638;9.876;2023-03-11T06:24:21;17.80;;;10.47;;
56399;SDS011;42298;53.638;9.876;2023-03-11T06:26:49;19.13;;;10.23;;
56399;SDS011;42298;53.638;9.876;2023-03-11T06:29:15;16.63;;;10.60;;
56399;SDS011;42298;53.638;9.876;2023-03-11T06:31:40;17.70;;;10.77;;
56399;SDS011;42298;53.638;9.876;2023-03-11T06:34:06;18.23;;;10.70;;
56399;SDS011;42298;53.638;9.876;2023-03-11T06:36:33;18.33;;;10.60;;
56399;SDS011;42298;53.638;9.876;2023-03-11T06:38:58;15.90;;;9.50;;
56399;SDS011;42298;53.638;9.876;2023-03-11T06:41:24;15.73;;;10.10;;
56399;SDS011;42298;53.638;9.876;2023-03-11T06:43:49;17.40;;;10.70;;
56399;SDS011;42298;53.638;9.876;2023-03-11T06:46:17;17.27;;;9.97;;
56399;SDS011;42298;53.638;9.876;2023-03-11T06:48:44;16.30;;;9.77;;
56399;SDS011;42298;53.638;9.876;2023-03-11T06:51:10;17.63;;;10.07;;
56399;SDS011;42298;53.638;9.876;2023-03-11T06:53:36;17.00;;;10.07;;
56399;SDS011;42298;53.638;9.876;2023-03-11T06:56:06;16.30;;;9.60;;
56399;SDS011;42298;53.638;9.876;2023-03-11T06:58:34;17.23;;;10.07;;
56399;SDS011;42298;53.638;9.876;2023-03-11T07:01:02;16.13;;;9.43;;
56399;SDS011;42298;53.638;9.876;2023-03-11T07:03:34;15.50;;;9.20;;
56399;SDS011;42298;53.638;9.876;2023-03-11T07:05:59;15.40;;;9.50;;
56399;SDS011;42298;53.638;9.876;2023-03-11T07:08:25;15.87;;;9.67;;
56399;SDS011;42298;53.638;9.876;2023-03-11T07:13:37;16.27;;;9.30;;
56399;SDS011;42298;53.638;9.876;2023-03-11T07:16:05;14.73;;;8.57;;
56399;SDS011;42298;53.638;9.876;2023-03-11T07:18:32;14.97;;;8.20;;
56399;SDS011;42298;53.638;9.876;2023-03-11T07:21:00;12.97;;;8.13;;
56399;SDS011;42298;53.638;9.876;2023-03-11T07:23:26;13.57;;;8.10;;
56399;SDS011;42298;53.638;9.876;2023-03-11T07:25:52;13.57;;;8.23;;
56399;SDS011;42298;53.638;9.876;2023-03-11T07:28:19;14.13;;;8.17;;
56399;SDS011;42298;53.638;9.876;2023-03-11T07:30:45;13.30;;;8.33;;
56399;SDS011;42298;53.638;9.876;2023-03-11T07:33:12;13.20;;;8.00;;
56399;SDS011;42298;53.638;9.876;2023-03-11T07:35:38;15.73;;;8.87;;
56399;SDS011;42298;53.638;9.876;2023-03-11T07:38:03;13.67;;;8.23;;
56399;SDS011;42298;53.638;9.876;2023-03-11T07:40:28;13.03;;;7.83;;
56399;SDS011;42298;53.638;9.876;2023-03-11T07:42:54;13.47;;;8.17;;
56399;SDS011;42298;53.638;9.876;2023-03-11T07:45:22;13.27;;;7.43;;
56399;SDS011;42298;53.638;9.876;2023-03-11T07:47:59;14.87;;;7.90;;
56399;SDS011;42298;53.638;9.876;2023-03-11T07:50:24;15.27;;;9.00;;
56399;SDS011;42298;53.638;9.876;2023-03-11T07:52:50;14.87;;;8.67;;
56399;SDS011;42298;53.638;9.876;2023-03-11T07:55:15;14.40;;;9.20;;
56399;SDS011;42298;53.638;9.876;2023-03-11T07:57:41;13.03;;;7.63;;
56399;SDS011;42298;53.638;9.876;2023-03-11T08:00:07;12.13;;;7.37;;
56399;SDS011;42298;53.638;9.876;2023-03-11T08:02:33;12.80;;;7.80;;
56399;SDS011;42298;53.638;9.876;2023-03-11T08:04:58;15.57;;;7.97;;
56399;SDS011;42298;53.638;9.876;2023-03-11T08:07:23;15.93;;;9.20;;
56399;SDS011;42298;53.638;9.876;2023-03-11T08:09:49;13.67;;;8.13;;
56399;SDS011;42298;53.638;9.876;2023-03-11T08:12:14;12.77;;;7.03;;
56399;SDS011;42298;53.638;9.876;2023-03-11T08:14:40;13.10;;;7.63;;
56399;SDS011;42298;53.638;9.876;2023-03-11T08:17:07;12.40;;;7.30;;
56399;SDS011;42298;53.638;9.876;2023-03-11T08:19:33;13.53;;;7.80;;
56399;SDS011;42298;53.638;9.876;2023-03-11T08:21:59;12.63;;;7.80;;
56399;SDS011;42298;53.638;9.876;2023-03-11T08:24:27;12.13;;;7.53;;
56399;SDS011;42298;53.638;9.876;2023-03-11T08:26:52;12.37;;;7.20;;
56399;SDS011;42298;53.638;9.876;2023-03-11T08:29:19;12.17;;;6.87;;
56399;SDS011;42298;53.638;9.876;2023-03-11T08:31:44;12.27;;;7.13;;
56399;SDS011;42298;53.638;9.876;2023-03-11T08:34:10;11.70;;;6.53;;
56399;SDS011;42298;53.638;9.876;2023-03-11T08:36:36;13.70;;;6.77;;
56399;SDS011;42298;53.638;9.876;2023-03-11T08:39:01;13.67;;;6.80;;
56399;SDS011;42298;53.638;9.876;2023-03-11T08:41:27;12.07;;;5.93;;
56399;SDS011;42298;53.638;9.876;2023-03-11T08:43:52;12.27;;;6.87;;
56399;SDS011;42298;53.638;9.876;2023-03-11T08:46:25;12.57;;;6.20;;
56399;SDS011;42298;53.638;9.876;2023-03-11T08:48:53;8.60;;;4.80;;
56399;SDS011;42298;53.638;9.876;2023-03-11T08:51:18;10.47;;;5.90;;
56399;SDS011;42298;53.638;9.876;2023-03-11T08:53:44;11.47;;;5.47;;
56399;SDS011;42298;53.638;9.876;2023-03-11T08:56:10;11.67;;;5.20;;
56399;SDS011;42298;53.638;9.876;2023-03-11T08:58:36;11.53;;;5.07;;
56399;SDS011;42298;53.638;9.876;2023-03-11T09:01:01;10.10;;;4.90;;
56399;SDS011;42298;53.638;9.876;2023-03-11T09:03:29;11.03;;;5.27;;
56399;SDS011;42298;53.638;9.876;2023-03-11T09:05:56;9.07;;;4.90;;
56399;SDS011;42298;53.638;9.876;2023-03-11T09:08:25;9.37;;;4.90;;
56399;SDS011;42298;53.638;9.876;2023-03-11T09:10:53;8.63;;;4.73;;
56399;SDS011;42298;53.638;9.876;2023-03-11T09:13:18;11.33;;;5.73;;
56399;SDS011;42298;53.638;9.876;2023-03-11T09:15:43;10.00;;;4.87;;
56399;SDS011;42298;53.638;9.876;2023-03-11T09:18:12;8.73;;;4.93;;
56399;SDS011;42298;53.638;9.876;2023-03-11T09:20:38;9.47;;;4.63;;
56399;SDS011;42298;53.638;9.876;2023-03-11T09:23:04;9.77;;;4.77;;
56399;SDS011;42298;53.638;9.876;2023-03-11T09:25:34;8.17;;;4.10;;
56399;SDS011;42298;53.638;9.876;2023-03-11T09:27:59;8.33;;;4.17;;
56399;SDS011;42298;53.638;9.876;2023-03-11T09:30:25;7.03;;;3.83;;
56399;SDS011;42298;53.638;9.876;2023-03-11T09:32:50;7.80;;;4.03;;
56399;SDS011;42298;53.638;9.876;2023-03-11T09:35:15;8.00;;;4.03;;
56399;SDS011;42298;53.638;9.876;2023-03-11T09:37:40;7.57;;;3.50;;
56399;SDS011;42298;53.638;9.876;2023-03-11T09:40:06;7.87;;;3.50;;
56399;SDS011;42298;53.638;9.876;2023-03-11T09:45:29;7.23;;;3.33;;
56399;SDS011;42298;53.638;9.876;2023-03-11T09:50:53;7.77;;;3.60;;
56399;SDS011;42298;53.638;9.876;2023-03-11T09:55:54;7.47;;;3.80;;
56399;SDS011;42298;53.638;9.876;2023-03-11T09:58:41;7.93;;;3.70;;
56399;SDS011;42298;53.638;9.876;2023-03-11T10:01:21;8.13;;;3.60;;
56399;SDS011;42298;53.638;9.876;2023-03-11T10:03:51;6.43;;;3.00;;
56399;SDS011;42298;53.638;9.876;2023-03-11T10:06:27;7.37;;;3.37;;
56399;SDS011;42298;53.638;9.876;2023-03-11T10:09:13;12.17;;;3.73;;
56399;SDS011;42298;53.638;9.876;2023-03-11T10:14:30;9.07;;;3.30;;
56399;SDS011;42298;53.638;9.876;2023-03-11T10:17:12;8.30;;;3.23;;
56399;SDS011;42298;53.638;9.876;2023-03-11T10:19:58;7.80;;;3.27;;
56399;SDS011;42298;53.638;9.876;2023-03-11T10:25:40;7.20;;;3.30;;
56399;SDS011;42298;53.638;9.876;2023-03-11T10:31:34;8.10;;;3.30;;
56399;SDS011;42298;53.638;9.876;2023-03-11T10:34:10;9.73;;;3.70;;
56399;SDS011;42298;53.638;9.876;2023-03-11T10:36:50;10.17;;;3.60;;
56399;SDS011;42298;53.638;9.876;2023-03-11T10:39:25;6.63;;;3.10;;
56399;SDS011;42298;53.638;9.876;2023-03-11T10:41:53;6.43;;;3.13;;
56399;SDS011;42298;53.638;9.876;2023-03-11T10:44:26;10.77;;;3.83;;
56399;SDS011;42298;53.638;9.876;2023-03-11T10:47:02;7.47;;;3.20;;
56399;SDS011;42298;53.638;9.876;2023-03-11T10:49:29;6.80;;;3.13;;
56399;SDS011;42298;53.638;9.876;2023-03-11T10:51:57;8.17;;;3.43;;
56399;SDS011;42298;53.638;9.876;2023-03-11T10:54:30;8.13;;;3.30;;
56399;SDS011;42298;53.638;9.876;2023-03-11T10:56:59;7.33;;;3.37;;
56399;SDS011;42298;53.638;9.876;2023-03-11T10:59:45;9.50;;;3.70;;
56399;SDS011;42298;53.638;9.876;2023-03-11T11:02:21;9.90;;;3.87;;
56399;SDS011;42298;53.638;9.876;2023-03-11T11:04:47;6.77;;;3.30;;
56399;SDS011;42298;53.638;9.876;2023-03-11T11:07:27;7.17;;;3.33;;
56399;SDS011;42298;53.638;9.876;2023-03-11T11:15:20;19.77;;;5.03;;
56399;SDS011;42298;53.638;9.876;2023-03-11T11:17:46;9.47;;;3.80;;
56399;SDS011;42298;53.638;9.876;2023-03-11T11:20:15;8.87;;;3.50;;
56399;SDS011;42298;53.638;9.876;2023-03-11T11:22:46;7.50;;;3.53;;
56399;SDS011;42298;53.638;9.876;2023-03-11T11:25:31;9.57;;;3.30;;
56399;SDS011;42298;53.638;9.876;2023-03-11T11:28:16;9.00;;;3.27;;
56399;SDS011;42298;53.638;9.876;2023-03-11T11:30:53;5.33;;;2.47;;
56399;SDS011;42298;53.638;9.876;2023-03-11T11:33:20;8.30;;;2.97;;
56399;SDS011;42298;53.638;9.876;2023-03-11T11:36:11;5.33;;;2.10;;
56399;SDS011;42298;53.638;9.876;2023-03-11T11:38:39;11.80;;;2.63;;
56399;SDS011;42298;53.638;9.876;2023-03-11T11:41:04;6.40;;;2.23;;
56399;SDS011;42298;53.638;9.876;2023-03-11T11:43:49;8.33;;;2.40;;
56399;SDS011;42298;53.638;9.876;2023-03-11T11:46:24;5.37;;;2.37;;
56399;SDS011;42298;53.638;9.876;2023-03-11T11:54:41;7.73;;;2.47;;
56399;SDS011;42298;53.638;9.876;2023-03-11T11:57:14;6.40;;;2.23;;
56399;SDS011;42298;53.638;9.876;2023-03-11T11:59:41;8.57;;;2.10;;
56399;SDS011;42298;53.638;9.876;2023-03-11T12:02:29;3.47;;;1.83;;
56399;SDS011;42298;53.638;9.876;2023-03-11T12:05:03;5.23;;;2.03;;
56399;SDS011;42298;53.638;9.876;2023-03-11T12:10:17;8.50;;;1.80;;
56399;SDS011;42298;53.638;9.876;2023-03-11T12:12:54;5.90;;;2.03;;
56399;SDS011;42298;53.638;9.876;2023-03-11T12:15:51;7.80;;;2.07;;
56399;SDS011;42298;53.638;9.876;2023-03-11T12:18:23;5.77;;;1.90;;
56399;SDS011;42298;53.638;9.876;2023-03-11T12:21:00;7.93;;;1.77;;
56399;SDS011;42298;53.638;9.876;2023-03-11T12:24:05;6.43;;;1.80;;
56399;SDS011;42298;53.638;9.876;2023-03-11T12:26:37;4.23;;;1.80;;
56399;SDS011;42298;53.638;9.876;2023-03-11T12:29:11;4.30;;;1.70;;
56399;SDS011;42298;53.638;9.876;2023-03-11T12:31:48;8.77;;;1.93;;
56399;SDS011;42298;53.638;9.876;2023-03-11T12:34:15;4.77;;;1.70;;
56399;SDS011;42298;53.638;9.876;2023-03-11T12:36:44;6.97;;;2.13;;
56399;SDS011;42298;53.638;9.876;2023-03-11T12:39:22;5.93;;;1.60;;
56399;SDS011;42298;53.638;9.876;2023-03-11T12:44:38;3.60;;;1.70;;
56399;SDS011;42298;53.638;9.876;2023-03-11T12:49:40;2.23;;;1.37;;
56399;SDS011;42298;53.638;9.876;2023-03-11T12:54:39;4.13;;;1.33;;
56399;SDS011;42298;53.638;9.876;2023-03-11T12:57:23;8.53;;;1.77;;
56399;SDS011;42298;53.638;9.876;2023-03-11T13:00:13;5.07;;;1.90;;
56399;SDS011;42298;53.638;9.876;2023-03-11T13:08:54;5.50;;;1.60;;
56399;SDS011;42298;53.638;9.876;2023-03-11T13:14:09;4.97;;;1.83;;
56399;SDS011;42298;53.638;9.876;2023-03-11T13:16:36;2.20;;;1.13;;
56399;SDS011;42298;53.638;9.876;2023-03-11T13:21:49;5.93;;;1.50;;
56399;SDS011;42298;53.638;9.876;2023-03-11T13:27:17;3.73;;;1.50;;
56399;SDS011;42298;53.638;9.876;2023-03-11T13:35:00;4.87;;;1.57;;
56399;SDS011;42298;53.638;9.876;2023-03-11T13:40:32;4.30;;;1.60;;
56399;SDS011;42298;53.638;9.876;2023-03-11T13:43:24;6.20;;;1.60;;
56399;SDS011;42298;53.638;9.876;2023-03-11T13:46:02;19.37;;;10.33;;
56399;SDS011;42298;53.638;9.876;2023-03-11T13:48:35;9.27;;;2.90;;
56399;SDS011;42298;53.638;9.876;2023-03-11T13:51:23;8.20;;;3.30;;
56399;SDS011;42298;53.638;9.876;2023-03-11T13:54:01;4.03;;;1.70;;
56399;SDS011;42298;53.638;9.876;2023-03-11T13:56:36;7.50;;;2.10;;
56399;SDS011;42298;53.638;9.876;2023-03-11T13:59:15;6.10;;;1.80;;
56399;SDS011;42298;53.638;9.876;2023-03-11T14:01:48;4.00;;;1.60;;
56399;SDS011;42298;53.638;9.876;2023-03-11T14:04:17;3.27;;;1.27;;
56399;SDS011;42298;53.638;9.876;2023-03-11T14:06:49;6.37;;;1.53;;
56399;SDS011;42298;53.638;9.876;2023-03-11T14:09:17;4.23;;;1.77;;
56399;SDS011;42298;53.638;9.876;2023-03-11T14:11:43;4.83;;;1.70;;
56399;SDS011;42298;53.638;9.876;2023-03-11T14:14:57;2.83;;;1.20;;
56399;SDS011;42298;53.638;9.876;2023-03-11T14:17:14;6.53;;;1.87;;
56399;SDS011;42298;53.638;9.876;2023-03-11T14:19:43;5.30;;;2.10;;
56399;SDS011;42298;53.638;9.876;2023-03-11T14:22:31;3.53;;;1.60;;
56399;SDS011;42298;53.638;9.876;2023-03-11T14:24:57;2.10;;;1.40;;
56399;SDS011;42298;53.638;9.876;2023-03-11T14:27:25;3.03;;;1.50;;
56399;SDS011;42298;53.638;9.876;2023-03-11T14:29:51;4.43;;;1.80;;
56399;SDS011;42298;53.638;9.876;2023-03-11T14:32:27;2.67;;;1.27;;
56399;SDS011;42298;53.638;9.876;2023-03-11T14:34:53;3.50;;;1.50;;
56399;SDS011;42298;53.638;9.876;2023-03-11T14:37:23;4.87;;;1.50;;
56399;SDS011;42298;53.638;9.876;2023-03-11T14:39:55;4.83;;;1.50;;
56399;SDS011;42298;53.638;9.876;2023-03-11T14:45:15;5.30;;;1.83;;
56399;SDS011;42298;53.638;9.876;2023-03-11T14:50:30;8.60;;;2.23;;
56399;SDS011;42298;53.638;9.876;2023-03-11T14:55:42;5.13;;;1.73;;
56399;SDS011;42298;53.638;9.876;2023-03-11T14:58:40;6.80;;;1.67;;
56399;SDS011;42298;53.638;9.876;2023-03-11T15:03:54;5.37;;;1.90;;
56399;SDS011;42298;53.638;9.876;2023-03-11T15:06:29;2.17;;;1.30;;
56399;SDS011;42298;53.638;9.876;2023-03-11T15:08:59;5.13;;;1.60;;
56399;SDS011;42298;53.638;9.876;2023-03-11T15:11:30;6.23;;;1.73;;
56399;SDS011;42298;53.638;9.876;2023-03-11T15:14:12;5.33;;;1.70;;
56399;SDS011;42298;53.638;9.876;2023-03-11T15:16:43;7.17;;;1.93;;
56399;SDS011;42298;53.638;9.876;2023-03-11T15:21:52;5.90;;;1.70;;
56399;SDS011;42298;53.638;9.876;2023-03-11T15:24:20;3.73;;;1.40;;
56399;SDS011;42298;53.638;9.876;2023-03-11T15:29:30;6.67;;;1.70;;
56399;SDS011;42298;53.638;9.876;2023-03-11T15:31:57;9.33;;;1.90;;
56399;SDS011;42298;53.638;9.876;2023-03-11T15:34:27;2.83;;;1.60;;
56399;SDS011;42298;53.638;9.876;2023-03-11T15:37:00;6.97;;;1.83;;
56399;SDS011;42298;53.638;9.876;2023-03-11T15:44:39;3.50;;;1.50;;
56399;SDS011;42298;53.638;9.876;2023-03-11T15:47:18;4.07;;;1.30;;
56399;SDS011;42298;53.638;9.876;2023-03-11T15:49:45;6.43;;;1.50;;
56399;SDS011;42298;53.638;9.876;2023-03-11T15:52:11;4.13;;;1.80;;
56399;SDS011;42298;53.638;9.876;2023-03-11T15:54:36;4.23;;;2.00;;
56399;SDS011;42298;53.638;9.876;2023-03-11T15:57:04;4.73;;;1.87;;
56399;SDS011;42298;53.638;9.876;2023-03-11T15:59:31;6.20;;;2.13;;
56399;SDS011;42298;53.638;9.876;2023-03-11T16:01:58;5.43;;;2.03;;
56399;SDS011;42298;53.638;9.876;2023-03-11T16:04:23;5.63;;;1.80;;
56399;SDS011;42298;53.638;9.876;2023-03-11T16:06:48;3.97;;;1.90;;
56399;SDS011;42298;53.638;9.876;2023-03-11T16:09:14;3.87;;;1.53;;
56399;SDS011;42298;53.638;9.876;2023-03-11T16:11:40;4.83;;;2.70;;